Time;durP1;ratioP1;P1;durP2;ratioP2;P2;SDS_P1;SDS_P2;PMS_P1;PMS_P2;Temp;Humidity;BMP_temperature;BMP_pressure;BME280_temperature;BME280_humidity;BME280_pressure;Samples;Min_cycle;Max_cycle;Signal;HPM_P1;HPM_P2
2021/12/08 00:01:41;;;;;;;58.45;25.52;;;;;;;-2.16;82.92;100275.30;1630064;88;21163;-73
2021/12/08 00:04:07;;;;;;;50.35;23.98;;;;;;;-2.16;82.92;100271.84;1630353;88;27444;-73
2021/12/08 00:06:33;;;;;;;64.42;29.95;;;;;;;-2.17;82.92;100270.16;1630476;88;26420;-73
2021/12/08 00:09:05;;;;;;;59.63;27.90;;;;;;;-2.19;82.92;100266.35;1630547;88;23794;-73
2021/12/08 00:14:12;;;;;;;55.52;26.30;;;;;;;-2.16;82.93;100271.84;1630424;88;21776;-73
2021/12/08 00:16:38;;;;;;;58.90;25.97;;;;;;;-2.15;82.94;100274.37;1630383;88;21049;-73
2021/12/08 00:19:06;;;;;;;57.90;26.35;;;;;;;-2.15;82.93;100279.60;1630433;88;25872;-73
2021/12/08 00:21:32;;;;;;;63.10;28.87;;;;;;;-2.14;82.92;100273.89;1630542;88;21032;-73
2021/12/08 00:23:57;;;;;;;59.53;26.82;;;;;;;-2.13;82.93;100271.66;1627846;88;20910;-73
2021/12/08 00:26:24;;;;;;;56.65;26.12;;;;;;;-2.11;82.95;100276.34;1626179;88;21605;-73
2021/12/08 00:28:49;;;;;;;64.87;28.55;;;;;;;-2.10;82.95;100280.61;1629964;87;26932;-73
2021/12/08 00:31:16;;;;;;;64.53;30.02;;;;;;;-2.11;82.95;100277.64;1640823;86;25804;-73
2021/12/08 00:33:42;;;;;;;56.02;26.70;;;;;;;-2.08;82.96;100282.68;1665522;86;21506;-73
2021/12/08 00:36:14;;;;;;;64.67;30.60;;;;;;;-2.07;82.94;100281.72;1642567;87;20901;-73
2021/12/08 00:38:39;;;;;;;60.17;29.23;;;;;;;-2.09;82.96;100275.30;1634867;86;21483;-73
2021/12/08 00:41:06;;;;;;;64.12;26.35;;;;;;;-2.10;82.94;100282.76;1631125;88;26893;-73
2021/12/08 00:43:32;;;;;;;59.25;26.17;;;;;;;-2.09;82.97;100273.16;1631168;88;21050;-73
2021/12/08 00:45:58;;;;;;;58.60;25.25;;;;;;;-2.11;82.95;100269.81;1634984;86;21061;-73
2021/12/08 00:48:24;;;;;;;62.05;28.50;;;;;;;-2.12;82.96;100269.42;1667546;86;21720;-73
2021/12/08 00:50:50;;;;;;;55.35;25.40;;;;;;;-2.11;82.95;100268.50;1675001;83;21206;-73
2021/12/08 00:53:16;;;;;;;56.63;26.33;;;;;;;-2.10;82.96;100264.47;1714790;82;21411;-73
2021/12/08 00:55:42;;;;;;;59.03;29.12;;;;;;;-2.10;82.95;100272.77;1714881;83;21071;-72
2021/12/08 00:58:08;;;;;;;59.63;26.73;;;;;;;-2.11;82.96;100271.11;1714293;83;28522;-72
2021/12/08 01:00:40;;;;;;;62.35;27.07;;;;;;;-2.13;82.94;100272.96;1714994;83;21109;-72
2021/12/08 01:03:06;;;;;;;61.55;28.07;;;;;;;-2.13;82.96;100269.05;1714850;82;21253;-72
2021/12/08 01:05:36;;;;;;;57.35;26.07;;;;;;;-2.12;82.96;100260.28;1714792;82;21016;-72
2021/12/08 01:08:03;;;;;;;59.27;26.65;;;;;;;-2.13;82.94;100255.98;1715117;83;21018;-72
2021/12/08 01:10:29;;;;;;;56.15;28.52;;;;;;;-2.14;82.94;100252.98;1674881;82;21053;-72
2021/12/08 01:12:55;;;;;;;61.20;28.73;;;;;;;-2.14;82.94;100247.77;1673267;84;21092;-73
2021/12/08 01:15:22;;;;;;;60.90;26.25;;;;;;;-2.15;82.94;100248.72;1673126;85;21090;-72
2021/12/08 01:17:48;;;;;;;51.92;24.30;;;;;;;-2.14;82.97;100248.61;1673192;85;21049;-72
2021/12/08 01:20:15;;;;;;;51.15;24.45;;;;;;;-2.14;82.96;100247.77;1673246;85;25847;-72
2021/12/08 01:22:42;;;;;;;60.35;23.92;;;;;;;-2.16;82.96;100243.96;1673212;84;21088;-73
2021/12/08 01:25:08;;;;;;;54.73;25.65;;;;;;;-2.15;82.96;100230.44;1673096;85;21049;-72
2021/12/08 01:27:34;;;;;;;59.50;27.30;;;;;;;-2.16;82.96;100232.67;1673025;85;21085;-72
2021/12/08 01:30:01;;;;;;;59.83;28.02;;;;;;;-2.15;82.96;100226.52;1673545;85;21019;-72
2021/12/08 01:32:27;;;;;;;52.30;23.83;;;;;;;-2.14;82.97;100233.40;1677550;85;21045;-72
2021/12/08 01:34:53;;;;;;;57.25;26.97;;;;;;;-2.14;83.00;100228.17;1678500;85;21533;-72
2021/12/08 01:37:20;;;;;;;49.77;22.58;;;;;;;-2.14;82.98;100224.26;1678621;85;21037;-72
2021/12/08 01:39:47;;;;;;;56.13;26.33;;;;;;;-2.14;83.00;100212.50;1678506;85;21174;-72
2021/12/08 01:42:17;;;;;;;56.35;26.17;;;;;;;-2.15;82.99;100208.23;1678463;85;21084;-72
2021/12/08 01:47:27;;;;;;;51.48;24.82;;;;;;;-2.14;83.02;100206.81;1678676;85;21050;-72
2021/12/08 01:49:53;;;;;;;54.77;26.05;;;;;;;-2.14;83.01;100194.22;1678184;85;21060;-72
2021/12/08 01:52:19;;;;;;;56.28;25.15;;;;;;;-2.14;83.04;100192.45;1665998;84;21062;-72
2021/12/08 01:54:45;;;;;;;57.38;25.17;;;;;;;-2.13;83.04;100189.37;1668723;86;27281;-72
2021/12/08 01:57:11;;;;;;;53.65;24.85;;;;;;;-2.12;83.06;100189.77;1668867;86;25855;-72
2021/12/08 01:59:37;;;;;;;53.00;25.02;;;;;;;-2.11;83.06;100190.14;1668797;86;20945;-72
2021/12/08 02:02:03;;;;;;;57.75;23.40;;;;;;;-2.10;83.07;100190.48;1668814;86;20988;-72
2021/12/08 02:04:29;;;;;;;60.25;25.05;;;;;;;-2.10;83.09;100182.66;1668910;84;21993;-72
2021/12/08 02:06:57;;;;;;;51.48;22.40;;;;;;;-2.09;83.09;100179.12;1668812;84;26898;-72
2021/12/08 02:09:23;;;;;;;50.15;23.02;;;;;;;-2.09;83.09;100172.59;1668883;86;21675;-73
2021/12/08 02:11:53;;;;;;;49.10;20.48;;;;;;;-2.08;83.08;100176.89;1669015;84;20894;-72
2021/12/08 02:14:17;;;;;;;49.27;22.15;;;;;;;-2.07;83.09;100177.23;1668842;85;21577;-72
2021/12/08 02:16:43;;;;;;;51.73;24.05;;;;;;;-2.06;83.12;100171.09;1668974;86;21044;-72
2021/12/08 02:19:09;;;;;;;55.20;25.10;;;;;;;-2.06;83.12;100168.47;1668785;86;26941;-72
2021/12/08 02:21:38;;;;;;;52.33;25.00;;;;;;;-2.05;83.13;100170.16;1668956;86;26425;-72
2021/12/08 02:24:08;;;;;;;41.48;19.07;;;;;;;-2.04;83.12;100162.20;1668766;85;21020;-72
2021/12/08 02:26:34;;;;;;;55.28;24.50;;;;;;;-2.01;83.14;100162.51;1647682;86;21048;-72
2021/12/08 02:29:04;;;;;;;57.10;25.82;;;;;;;-2.00;83.16;100164.16;1668631;86;21861;-72
2021/12/08 02:31:36;;;;;;;53.05;25.60;;;;;;;-2.01;83.16;100152.06;1668624;85;21032;-72
2021/12/08 02:50:15;;;;;;;51.10;23.87;;;;;;;-1.98;83.24;100136.64;1659172;86;21520;-72
2021/12/08 02:52:41;;;;;;;55.45;24.32;;;;;;;-1.96;83.25;100132.99;1668880;85;21095;-72
2021/12/08 02:55:08;;;;;;;54.13;23.92;;;;;;;-1.96;83.26;100119.93;1668843;86;21246;-72
2021/12/08 02:57:34;;;;;;;49.40;23.67;;;;;;;-1.95;83.25;100115.08;1669028;86;21083;-72
2021/12/08 03:00:00;;;;;;;60.20;24.70;;;;;;;-1.93;83.26;100120.19;1669220;86;25810;-72
2021/12/08 03:02:26;;;;;;;50.65;22.05;;;;;;;-1.91;83.29;100114.42;1668975;86;21009;-72
2021/12/08 03:04:52;;;;;;;52.48;22.80;;;;;;;-1.92;83.26;100105.73;1669168;86;21036;-73
2021/12/08 03:07:18;;;;;;;51.63;23.25;;;;;;;-1.93;83.29;100090.98;1669096;86;21193;-72
2021/12/08 03:09:44;;;;;;;55.58;24.23;;;;;;;-1.93;83.29;100089.68;1669289;86;27267;-72
2021/12/08 03:12:10;;;;;;;52.38;24.67;;;;;;;-1.95;83.28;100083.73;1669043;86;26436;-72
2021/12/08 03:14:36;;;;;;;43.70;20.23;;;;;;;-1.96;83.29;100082.51;1632920;87;21055;-72
2021/12/08 03:17:06;;;;;;;50.80;24.32;;;;;;;-1.98;83.29;100074.79;1666446;84;20992;-72
2021/12/08 03:19:31;;;;;;;;;;;;;;;-1.98;83.31;100070.03;1661907;86;21173;-72
2021/12/08 03:21:58;;;;;;;58.23;25.20;;;;;;;-1.99;83.29;100058.73;1659355;86;27390;-72
2021/12/08 03:24:34;;;;;;;58.83;24.10;;;;;;;-1.98;83.32;100058.27;1659386;86;21104;-72
2021/12/08 03:29:55;;;;;;;59.75;27.17;;;;;;;-2.01;83.32;100051.48;1659579;86;21505;-72
2021/12/08 03:32:05;;;;;;;64.40;25.72;;;;;;;-2.03;83.33;100048.11;1649131;86;21120;-72
2021/12/08 03:34:26;;;;;;;59.20;25.80;;;;;;;-2.03;83.32;100045.50;1658430;86;21551;-72
2021/12/08 03:36:52;;;;;;;52.62;23.10;;;;;;;-2.03;83.35;100047.64;1659675;86;21489;-72
2021/12/08 03:39:18;;;;;;;51.18;22.82;;;;;;;-2.04;83.35;100039.43;1659760;86;20890;-72
2021/12/08 03:41:44;;;;;;;47.95;22.10;;;;;;;-2.07;83.34;100028.34;1659670;86;21001;-72
2021/12/08 03:44:10;;;;;;;61.63;25.50;;;;;;;-2.07;83.35;100027.03;1659867;86;21545;-72
2021/12/08 03:46:40;;;;;;;54.20;22.15;;;;;;;-2.10;83.35;100025.94;1659475;86;21029;-72
2021/12/08 03:49:06;;;;;;;51.48;22.55;;;;;;;-2.11;83.37;100026.89;1659377;86;21028;-72
2021/12/08 03:51:32;;;;;;;43.83;19.07;;;;;;;-2.14;83.38;100019.23;1660382;85;21524;-72
2021/12/08 03:53:58;;;;;;;56.68;24.35;;;;;;;-2.15;83.40;100007.13;1677682;85;20924;-72
2021/12/08 03:56:24;;;;;;;50.78;23.45;;;;;;;-2.18;83.40;100009.94;1677978;85;21918;-72
2021/12/08 03:58:50;;;;;;;46.40;21.65;;;;;;;-2.19;83.45;100003.03;1678685;85;26849;-72
2021/12/08 04:01:16;;;;;;;48.40;22.77;;;;;;;-2.20;83.45;100001.35;1678682;85;26557;-72
2021/12/08 04:03:48;;;;;;;46.55;21.30;;;;;;;-2.21;83.46;99997.05;1678694;85;28202;-72
2021/12/08 04:06:26;;;;;;;50.48;22.13;;;;;;;-2.22;83.46;99977.97;1678608;85;21111;-72
2021/12/08 04:08:44;;;;;;;40.52;17.52;;;;;;;-2.24;83.49;99968.53;1678747;84;21089;-72
2021/12/08 04:11:09;;;;;;;44.80;19.87;;;;;;;-2.25;83.50;99965.58;1678165;85;21541;-72
2021/12/08 04:13:46;;;;;;;50.12;21.37;;;;;;;-2.27;83.53;99970.05;1678681;85;21021;-72
2021/12/08 04:16:14;;;;;;;50.92;23.18;;;;;;;-2.27;83.53;99983.09;1678396;85;21065;-72
2021/12/08 04:18:40;;;;;;;45.48;20.15;;;;;;;-2.27;83.56;99993.55;1678601;85;21600;-72
2021/12/08 04:21:06;;;;;;;52.53;21.90;;;;;;;-2.27;83.58;100000.07;1678525;85;21042;-72
2021/12/08 04:23:36;;;;;;;57.03;25.02;;;;;;;-2.27;83.59;99990.94;1678614;85;21088;-72
2021/12/08 04:26:00;;;;;;;58.58;26.40;;;;;;;-2.26;83.63;99988.70;1678766;85;21039;-72
2021/12/08 04:31:44;;;;;;;59.03;26.95;;;;;;;-2.21;83.65;99979.62;1925757;74;21832;-73
2021/12/08 04:34:17;;;;;;;54.80;24.20;;;;;;;-2.24;83.66;99989.42;1865340;77;21047;-73
2021/12/08 04:36:46;;;;;;;59.15;27.25;;;;;;;-2.25;83.66;99993.00;1865331;75;21879;-72
2021/12/08 04:39:20;;;;;;;47.80;21.23;;;;;;;-2.25;83.69;99999.03;1835620;75;21027;-72
2021/12/08 04:41:51;;;;;;;54.83;28.47;;;;;;;-2.26;83.70;100000.45;1863958;75;20987;-72
2021/12/08 04:47:21;;;;;;;57.75;26.02;;;;;;;-2.26;83.72;100001.76;1865484;77;20960;-73
2021/12/08 05:04:01;;;;;;;46.63;21.10;;;;;;;-2.33;83.81;100004.39;1865478;77;21077;-72
2021/12/08 05:06:35;;;;;;;52.00;24.52;;;;;;;-2.31;83.83;100019.02;1874863;76;20971;-73
2021/12/08 05:08:48;;;;;;;48.42;21.82;;;;;;;-2.32;83.85;100012.60;1879073;75;21622;-73
2021/12/08 05:11:23;;;;;;;54.03;23.60;;;;;;;-2.29;83.85;100025.45;1865510;77;21006;-73
2021/12/08 05:13:54;;;;;;;56.30;24.65;;;;;;;-2.28;83.87;100029.26;1865384;77;20990;-73
2021/12/08 05:16:21;;;;;;;56.00;26.23;;;;;;;-2.29;83.89;100022.84;1865302;76;21224;-73
2021/12/08 05:18:48;;;;;;;54.95;23.80;;;;;;;-2.28;83.90;100021.89;1864805;77;21294;-73
2021/12/08 05:21:28;;;;;;;49.75;24.02;;;;;;;-2.28;83.91;100015.36;1865444;77;20995;-73
2021/12/08 05:24:00;;;;;;;58.75;24.70;;;;;;;-2.29;83.89;100010.63;1864337;75;20952;-73
2021/12/08 05:26:46;;;;;;;54.63;24.35;;;;;;;-2.27;83.89;100018.35;1863964;76;20976;-73
2021/12/08 05:29:30;;;;;;;53.90;23.83;;;;;;;-2.27;83.93;100018.35;1893949;75;21112;-73
2021/12/08 05:31:58;;;;;;;62.33;27.52;;;;;;;-2.25;83.93;100008.66;1869612;75;21037;-73
2021/12/08 05:34:25;;;;;;;56.63;26.30;;;;;;;-2.24;83.94;100014.23;1871393;76;21022;-73
2021/12/08 05:36:51;;;;;;;57.80;25.12;;;;;;;-2.25;83.94;100002.14;1871018;76;21030;-73
2021/12/08 05:39:20;;;;;;;51.23;24.10;;;;;;;-2.23;83.96;100008.08;1841434;76;20998;-73
2021/12/08 05:41:50;;;;;;;59.13;26.07;;;;;;;-2.22;83.96;100001.47;1836761;78;21166;-73
2021/12/08 05:44:16;;;;;;;65.75;29.10;;;;;;;-2.21;83.97;99998.36;1838847;76;21008;-73
2021/12/08 05:46:45;;;;;;;55.65;25.00;;;;;;;-2.20;83.98;100000.05;1836565;78;21024;-73
2021/12/08 05:49:13;;;;;;;59.70;28.35;;;;;;;-2.21;83.97;99998.36;1836609;78;21002;-73
2021/12/08 05:51:40;;;;;;;65.87;25.72;;;;;;;-2.21;83.98;99997.05;1836906;78;21001;-73
2021/12/08 05:54:12;;;;;;;56.35;25.82;;;;;;;-2.21;83.98;99996.59;1836677;78;21158;-73
2021/12/08 05:56:38;;;;;;;54.85;25.55;;;;;;;-2.21;83.99;99986.61;1835786;78;21052;-73
2021/12/08 05:59:05;;;;;;;56.00;23.83;;;;;;;-2.21;84.00;99991.83;1862969;76;21009;-72
2021/12/08 06:01:36;;;;;;;52.15;23.00;;;;;;;-2.22;84.01;99998.02;1869449;76;21533;-73
2021/12/08 06:04:03;;;;;;;58.68;25.10;;;;;;;-2.22;84.01;100005.84;1836872;78;21453;-72
2021/12/08 06:06:29;;;;;;;58.90;25.27;;;;;;;-2.21;84.04;99997.05;1836628;76;21613;-73
2021/12/08 06:08:55;;;;;;;58.13;24.82;;;;;;;-2.21;84.05;99995.28;1836866;76;26960;-72
2021/12/08 06:11:22;;;;;;;59.73;25.62;;;;;;;-2.21;84.04;100000.97;1836671;76;20973;-73
2021/12/08 06:13:49;;;;;;;63.08;25.75;;;;;;;-2.20;84.06;100005.27;1849955;76;21064;-73
2021/12/08 06:16:15;;;;;;;60.50;26.20;;;;;;;-2.18;84.07;100006.03;1854957;76;21040;-73
2021/12/08 06:18:44;;;;;;;60.33;25.12;;;;;;;-2.18;84.07;100012.55;1836710;78;21096;-73
2021/12/08 06:21:14;;;;;;;61.10;25.30;;;;;;;-2.19;84.07;100016.09;1874318;75;21672;-73
2021/12/08 06:23:40;;;;;;;55.45;24.90;;;;;;;-2.19;84.09;100014.33;1867454;75;21561;-73
2021/12/08 06:26:07;;;;;;;60.92;24.50;;;;;;;-2.18;84.11;100008.64;1870864;76;21005;-73
2021/12/08 06:28:33;;;;;;;53.50;24.92;;;;;;;-2.19;84.12;100011.71;1870104;76;21822;-73
2021/12/08 06:30:59;;;;;;;52.55;21.90;;;;;;;-2.20;84.12;100015.25;1879153;75;21139;-73
2021/12/08 06:33:26;;;;;;;56.13;23.80;;;;;;;-2.19;84.14;100005.65;1885756;75;26519;-73
2021/12/08 06:35:57;;;;;;;109.57;49.08;;;;;;;-2.20;84.13;100007.88;1896536;75;21070;-73
2021/12/08 06:38:23;;;;;;;401.22;157.03;;;;;;;-2.20;84.13;100008.72;1878088;75;21490;-73
2021/12/08 06:40:54;;;;;;;143.10;60.83;;;;;;;-2.18;84.16;100012.55;1864427;76;20974;-73
2021/12/08 06:43:25;;;;;;;294.52;124.10;;;;;;;-2.16;84.15;100017.20;1878307;74;21068;-73
2021/12/08 06:45:54;;;;;;;372.73;161.15;;;;;;;-2.16;84.19;100018.50;1891058;74;21023;-73
2021/12/08 06:48:25;;;;;;;158.75;67.22;;;;;;;-2.17;84.20;100024.19;1891196;74;21018;-73
2021/12/08 06:51:05;;;;;;;393.45;169.00;;;;;;;-2.17;84.19;100024.66;1887477;74;21037;-73
2021/12/08 06:53:31;;;;;;;;;;;;;;;-2.16;84.20;100020.65;1872452;74;21400;-73
2021/12/08 06:56:01;;;;;;;329.90;129.65;;;;;;;-2.14;84.21;100016.61;1878727;74;21222;-73
2021/12/08 06:58:29;;;;;;;305.18;109.10;;;;;;;-2.16;84.24;100027.18;1887636;74;21018;-73
2021/12/08 07:01:27;;;;;;;156.72;59.60;;;;;;;-2.14;84.23;100020.53;1816474;77;21070;-73
2021/12/08 07:04:09;;;;;;;200.87;87.92;;;;;;;-2.13;84.22;100019.61;1820339;77;20983;-73
2021/12/08 07:09:12;;;;;;;148.82;64.10;;;;;;;-2.11;84.25;100015.14;1830197;76;21074;-73
2021/12/08 07:11:38;;;;;;;74.15;35.00;;;;;;;-2.11;84.25;100017.25;1822366;78;21010;-73
2021/12/08 07:14:04;;;;;;;63.20;30.68;;;;;;;-2.10;84.25;100010.26;1828780;78;21097;-73
2021/12/08 07:16:38;;;;;;;63.40;27.30;;;;;;;-2.09;84.25;100008.03;1827554;78;21081;-73
2021/12/08 07:19:26;;;;;;;70.30;28.80;;;;;;;-2.07;84.28;100013.98;1827349;78;21437;-73
2021/12/08 07:21:44;;;;;;;56.70;25.82;;;;;;;-2.05;84.27;100014.73;1822865;78;21123;-73
2021/12/08 07:24:23;;;;;;;136.25;71.55;;;;;;;-2.05;84.28;100016.87;1814663;78;21014;-73
2021/12/08 07:26:50;;;;;;;69.35;32.55;;;;;;;-2.02;84.27;100021.06;1829986;78;21050;-73
2021/12/08 07:29:19;;;;;;;65.12;28.52;;;;;;;-1.99;84.28;100018.24;1816669;76;21006;-73
2021/12/08 07:31:51;;;;;;;68.12;29.80;;;;;;;-1.96;84.29;100024.56;1825502;78;21093;-73
2021/12/08 07:34:19;;;;;;;89.92;36.88;;;;;;;-1.98;84.28;100018.62;1830445;78;21507;-74
2021/12/08 07:36:50;;;;;;;642.80;228.58;;;;;;;-1.98;84.29;100023.84;1825934;78;20979;-73
2021/12/08 07:39:20;;;;;;;634.92;223.70;;;;;;;-1.97;84.30;100024.19;1823384;78;20964;-73
2021/12/08 07:41:52;;;;;;;394.20;140.05;;;;;;;-1.95;84.29;100030.17;1835919;78;20963;-73
2021/12/08 07:44:18;;;;;;;174.93;69.58;;;;;;;-1.92;84.32;100032.58;1832665;78;21073;-73
2021/12/08 07:46:48;;;;;;;169.85;65.55;;;;;;;-1.89;84.31;100026.30;1826791;78;21110;-73
2021/12/08 07:49:23;;;;;;;215.92;78.85;;;;;;;-1.88;84.31;100028.83;1814645;78;21574;-73
2021/12/08 07:51:57;;;;;;;122.58;49.03;;;;;;;-1.87;84.30;100031.83;1831835;78;21037;-73
2021/12/08 07:54:23;;;;;;;171.30;69.65;;;;;;;-1.88;84.32;100024.91;1810504;78;21046;-73
2021/12/08 07:56:52;;;;;;;151.60;60.40;;;;;;;-1.87;84.32;100017.45;1828949;78;21066;-74
2021/12/08 07:59:19;;;;;;;244.55;95.20;;;;;;;-1.87;84.33;100017.45;1818984;78;21127;-73
2021/12/08 08:01:48;;;;;;;163.70;68.20;;;;;;;-1.88;84.32;100023.61;1813067;78;21166;-73
2021/12/08 08:04:17;;;;;;;184.13;77.42;;;;;;;-1.87;84.31;100021.38;1819336;78;21005;-73
2021/12/08 08:06:46;;;;;;;117.30;43.95;;;;;;;-1.84;84.31;100025.09;1820181;78;21005;-73
2021/12/08 08:09:21;;;;;;;95.97;40.12;;;;;;;-1.82;84.32;100023.20;1815849;78;21472;-73
2021/12/08 08:11:56;;;;;;;154.57;61.83;;;;;;;-1.82;84.31;100031.03;1821036;78;21813;-73
2021/12/08 08:14:20;;;;;;;103.97;40.50;;;;;;;-1.82;84.32;100028.89;1807312;78;21046;-73
2021/12/08 08:16:50;;;;;;;93.95;41.35;;;;;;;-1.81;84.30;100028.80;1826539;78;21050;-73
2021/12/08 08:19:16;;;;;;;101.75;46.73;;;;;;;-1.79;84.32;100024.30;1808130;78;21553;-73
2021/12/08 08:21:46;;;;;;;79.20;33.80;;;;;;;-1.81;84.31;100024.88;1831119;78;21085;-73
2021/12/08 08:24:12;;;;;;;70.60;28.20;;;;;;;-1.81;84.30;100018.34;1813394;78;21118;-73
2021/12/08 08:26:39;;;;;;;241.42;92.47;;;;;;;-1.81;84.29;100020.96;1823870;78;20990;-73
2021/12/08 08:29:06;;;;;;;68.50;32.88;;;;;;;-1.82;84.29;100016.66;1813797;78;21002;-73
2021/12/08 08:31:48;;;;;;;71.25;31.30;;;;;;;-1.80;84.30;100016.11;1827487;76;20995;-73
2021/12/08 08:34:13;;;;;;;68.17;28.80;;;;;;;-1.78;84.29;100015.99;1829668;78;20986;-73
2021/12/08 08:36:45;;;;;;;68.57;28.35;;;;;;;-1.78;84.31;100018.14;1829557;78;21533;-72
2021/12/08 08:39:20;;;;;;;55.98;23.85;;;;;;;-1.75;84.28;100014.02;1823271;78;21033;-73
2021/12/08 08:41:54;;;;;;;62.30;27.02;;;;;;;-1.74;84.29;100011.77;1825811;77;21463;-72
2021/12/08 08:44:32;;;;;;;57.45;25.95;;;;;;;-1.75;84.26;100011.39;1828719;77;21385;-73
2021/12/08 08:47:00;;;;;;;63.02;26.73;;;;;;;-1.77;84.26;100013.29;1820130;78;21058;-74
2021/12/08 08:49:29;;;;;;;55.90;24.30;;;;;;;-1.78;84.23;100011.61;1826665;77;21718;-73
2021/12/08 08:52:09;;;;;;;63.28;27.80;;;;;;;-1.77;84.23;100010.67;1828430;78;21028;-74
2021/12/08 08:54:38;;;;;;;;;;;;;;;-1.77;84.22;100018.52;1792889;78;21866;-73
2021/12/08 08:57:12;;;;;;;59.23;25.80;;;;;;;-1.77;84.20;100014.59;1795311;79;20463;-73
2021/12/08 08:59:45;;;;;;;52.93;23.80;;;;;;;-1.79;84.19;100016.92;1802150;79;21038;-72
2021/12/08 09:02:12;;;;;;;61.98;27.27;;;;;;;-1.78;84.20;100009.45;1799639;79;21773;-73
2021/12/08 09:04:42;;;;;;;65.67;29.92;;;;;;;-1.79;84.17;100014.31;1800913;78;21078;-73
2021/12/08 09:07:13;;;;;;;73.15;31.42;;;;;;;-1.80;84.17;100011.34;1805413;79;21073;-73
2021/12/08 09:09:42;;;;;;;82.05;34.40;;;;;;;-1.71;84.17;100010.26;1796105;79;21019;-73
2021/12/08 09:12:16;;;;;;;55.48;25.65;;;;;;;-1.71;84.16;100010.26;1797114;79;24688;-73
2021/12/08 09:15:07;;;;;;;70.45;31.23;;;;;;;-1.72;84.12;100004.66;1796366;77;21597;-73
2021/12/08 09:17:42;;;;;;;58.45;23.35;;;;;;;-1.72;84.12;99997.28;1797390;79;21010;-73
2021/12/08 09:20:27;;;;;;;65.00;29.27;;;;;;;-1.72;84.11;99994.20;1816130;77;21038;-73
2021/12/08 09:23:02;;;;;;;59.08;28.73;;;;;;;-1.77;84.08;99985.84;1794996;79;20994;-73
2021/12/08 09:25:40;;;;;;;53.40;24.07;;;;;;;-1.75;84.07;99987.03;1810528;78;20996;-73
2021/12/08 09:28:17;;;;;;;66.35;27.55;;;;;;;-1.75;84.07;99985.27;1790515;79;21510;-73
2021/12/08 09:30:51;;;;;;;74.12;31.23;;;;;;;-1.80;84.04;99976.91;1788156;79;21535;-73
2021/12/08 09:33:22;;;;;;;60.25;26.95;;;;;;;-1.79;84.04;99972.03;1792707;79;21598;-73
2021/12/08 09:35:54;;;;;;;53.17;25.50;;;;;;;-1.77;84.00;99961.02;1783972;79;21055;-73
2021/12/08 09:38:28;;;;;;;64.58;28.50;;;;;;;-1.76;83.98;99963.17;1829589;77;21476;-73
2021/12/08 09:41:14;;;;;;;58.48;27.52;;;;;;;-1.74;84.00;99967.81;1781944;79;21736;-73
2021/12/08 09:43:48;;;;;;;68.10;31.10;;;;;;;-1.75;83.96;99963.05;1818063;77;21062;-73
2021/12/08 09:46:18;;;;;;;371.87;165.15;;;;;;;-1.77;83.95;99956.27;1825760;77;21090;-73
2021/12/08 09:48:45;;;;;;;;;;;;;;;-1.75;83.93;99955.20;1835561;77;21004;-73
2021/12/08 09:51:12;;;;;;;128.27;53.78;;;;;;;-1.73;83.91;99936.36;1826635;77;20214;-73
2021/12/08 09:53:38;;;;;;;413.55;179.93;;;;;;;-1.72;83.87;99934.09;1828967;77;21682;-73
2021/12/08 09:56:04;;;;;;;89.25;41.40;;;;;;;-1.73;83.83;99931.13;1828020;77;26714;-73
2021/12/08 09:58:30;;;;;;;260.10;109.22;;;;;;;-1.74;83.81;99921.61;1826511;77;21045;-73
2021/12/08 10:00:57;;;;;;;61.30;27.37;;;;;;;-1.71;83.80;99910.94;1830681;77;21523;-73
2021/12/08 10:03:24;;;;;;;163.57;66.50;;;;;;;-1.68;83.77;99915.95;1828168;77;21565;-73
2021/12/08 10:05:50;;;;;;;218.52;90.72;;;;;;;-1.66;83.73;99899.72;1827365;77;21073;-73
2021/12/08 10:08:16;;;;;;;236.62;100.40;;;;;;;-1.64;83.71;99899.12;1829161;77;21490;-73
2021/12/08 10:10:43;;;;;;;99.67;45.75;;;;;;;-1.59;83.70;99904.89;1828701;77;25998;-73
2021/12/08 10:13:09;;;;;;;85.45;39.53;;;;;;;-1.56;83.66;99894.22;1826493;77;20978;-72
2021/12/08 10:15:35;;;;;;;55.65;27.05;;;;;;;-1.57;83.60;99897.77;1827609;77;21077;-72
2021/12/08 10:18:01;;;;;;;70.75;32.25;;;;;;;-1.58;83.58;99898.70;1831965;77;21107;-73
2021/12/08 10:20:34;;;;;;;61.55;27.37;;;;;;;-1.59;83.54;99891.82;1793722;79;27549;-73
2021/12/08 10:23:28;;;;;;;67.62;30.77;;;;;;;-1.56;83.51;99899.45;1781425;79;21534;-73
2021/12/08 10:26:06;;;;;;;70.62;30.77;;;;;;;-1.54;83.49;99896.70;1813142;78;21483;-73
2021/12/08 10:28:34;;;;;;;47.35;23.65;;;;;;;-1.49;83.46;99892.48;1810702;78;21099;-73
2021/12/08 10:31:14;;;;;;;56.37;29.10;;;;;;;-1.47;83.42;99894.50;1823962;77;21117;-73
2021/12/08 10:34:06;;;;;;;71.80;37.28;;;;;;;-1.43;83.38;99903.81;1831897;77;21524;-73
2021/12/08 10:39:25;;;;;;;68.15;31.27;;;;;;;-1.31;83.35;99905.59;1833203;76;21057;-73
2021/12/08 10:42:04;;;;;;;73.10;34.50;;;;;;;-1.26;83.34;99900.38;1835237;75;21096;-73
2021/12/08 10:45:21;;;;;;;90.97;41.92;;;;;;;-1.22;83.33;99907.55;1830971;75;21138;-74
2021/12/08 10:47:50;;;;;;;81.78;37.25;;;;;;;-1.24;83.28;99908.14;1843867;77;20985;-73
2021/12/08 10:56:11;;;;;;;123.20;50.40;;;;;;;-1.26;83.21;99895.63;1839489;77;21446;-73
2021/12/08 10:58:42;;;;;;;87.82;35.95;;;;;;;-1.32;83.20;99892.14;1838232;77;21827;-73
2021/12/08 11:01:16;;;;;;;85.85;38.60;;;;;;;-1.35;83.16;99893.66;1846075;77;21618;-73
2021/12/08 11:03:43;;;;;;;67.10;28.95;;;;;;;-1.35;83.15;99893.66;1839116;77;21112;-73
2021/12/08 11:06:12;;;;;;;71.17;36.70;;;;;;;-1.38;83.10;99892.58;1842592;77;21009;-73
2021/12/08 11:11:32;;;;;;;76.55;34.08;;;;;;;-1.36;83.04;99885.44;1842075;77;22636;-74
2021/12/08 11:14:04;;;;;;;67.67;29.65;;;;;;;-1.46;83.00;99891.80;1819754;78;21000;-74
2021/12/08 11:16:36;;;;;;;105.97;59.23;;;;;;;-1.50;82.98;99889.02;1808144;78;21809;-74
2021/12/08 11:19:19;;;;;;;76.30;33.53;;;;;;;-1.55;82.94;99884.11;1814141;77;21304;-74
2021/12/08 11:21:49;;;;;;;85.03;35.65;;;;;;;-1.56;82.94;99890.30;1819040;77;21479;-74
2021/12/08 11:24:31;;;;;;;;;;;;;;;-1.58;82.87;99893.47;1819662;78;21010;-74
2021/12/08 11:26:52;;;;;;;63.23;28.35;;;;;;;-1.57;82.85;99889.08;1805391;78;20177;-74
2021/12/08 11:29:26;;;;;;;85.90;36.55;;;;;;;-1.56;82.83;99886.37;1806626;78;21143;-74
2021/12/08 11:32:00;;;;;;;63.42;27.42;;;;;;;-1.55;82.80;99876.76;1780655;79;21022;-74
2021/12/08 11:34:32;;;;;;;60.08;26.17;;;;;;;-1.55;82.78;99869.72;1809647;78;21026;-74
2021/12/08 11:37:01;;;;;;;63.28;26.02;;;;;;;-1.57;82.73;99859.86;1781078;80;21503;-74
2021/12/08 11:39:37;;;;;;;64.92;24.82;;;;;;;-1.55;82.72;99844.89;1803611;78;21094;-74
2021/12/08 11:42:08;;;;;;;58.52;25.55;;;;;;;-1.55;82.70;99833.13;1810163;77;21031;-74
2021/12/08 11:44:40;;;;;;;58.33;25.70;;;;;;;-1.51;82.67;99841.59;1774314;80;21046;-74
2021/12/08 11:47:10;;;;;;;63.38;28.20;;;;;;;-1.53;82.65;99843.48;1786973;79;20992;-74
2021/12/08 11:49:46;;;;;;;73.37;29.23;;;;;;;-1.60;82.61;99850.93;1779327;79;21496;-74
2021/12/08 11:52:18;;;;;;;82.30;35.13;;;;;;;-1.62;82.58;99846.26;1779936;79;21054;-73
2021/12/08 11:55:02;;;;;;;87.10;35.73;;;;;;;-1.65;82.56;99843.86;1786661;79;21200;-73
2021/12/08 11:57:37;;;;;;;77.82;30.30;;;;;;;-1.66;82.54;99842.68;1789727;79;21098;-73
2021/12/08 12:00:27;;;;;;;80.00;34.38;;;;;;;-1.68;82.52;99846.70;1784939;79;21011;-73
2021/12/08 12:02:59;;;;;;;73.95;31.95;;;;;;;-1.69;82.51;99841.09;1777065;79;21053;-73
2021/12/08 12:05:34;;;;;;;89.07;37.13;;;;;;;-1.69;82.51;99841.59;1779712;79;21587;-73
2021/12/08 12:08:02;;;;;;;86.97;38.05;;;;;;;-1.71;82.47;99853.45;1782756;79;21170;-73
2021/12/08 12:10:32;;;;;;;97.40;42.55;;;;;;;-1.78;82.46;99848.28;1781403;78;21023;-73
2021/12/08 12:12:59;;;;;;;99.05;37.75;;;;;;;-1.84;82.43;99842.17;1766288;80;23997;-73
2021/12/08 12:15:25;;;;;;;131.12;46.88;;;;;;;-1.84;82.42;99855.23;1773646;80;21090;-73
2021/12/08 12:17:51;;;;;;;161.47;55.65;;;;;;;-1.86;82.41;99847.11;1775022;80;21664;-73
2021/12/08 12:20:36;;;;;;;232.00;64.47;;;;;;;-1.90;82.40;99838.66;1774616;78;21535;-73
2021/12/08 12:23:46;;;;;;;181.32;55.15;;;;;;;-1.95;82.39;99847.30;1773802;79;20963;-73